createdAt,value
2023-01-22T00:04:53.352Z,100690.06
2023-01-22T00:09:58.189Z,100687.38
2023-01-22T00:15:01.551Z,100691.31
2023-01-22T00:20:06.044Z,100685.63
2023-01-22T00:25:13.024Z,100687.91
2023-01-22T00:30:17.039Z,100681.56
2023-01-22T00:35:20.647Z,100674.13
2023-01-22T00:40:25.405Z,100668.69
2023-01-22T00:45:28.564Z,100673.53
2023-01-22T00:50:31.950Z,100677.94
2023-01-22T00:55:36.909Z,100677.56
2023-01-22T01:00:40.390Z,100679.44
2023-01-22T01:05:43.942Z,100683.09
2023-01-22T01:10:48.958Z,100682.63
2023-01-22T01:15:59.487Z,100690.00
2023-01-22T01:21:04.436Z,100695.31
2023-01-22T01:26:10.532Z,100687.97
2023-01-22T01:31:16.255Z,100682.41
2023-01-22T01:36:40.353Z,100691.94
2023-01-22T01:41:46.781Z,100691.84
2023-01-22T01:46:52.854Z,100696.38
2023-01-22T01:51:59.592Z,100704.25
2023-01-22T01:57:09.980Z,100706.41
2023-01-22T02:02:14.111Z,100703.09
2023-01-22T02:07:17.596Z,100701.56
2023-01-22T02:12:22.466Z,100703.09
2023-01-22T02:17:25.779Z,100691.97
2023-01-22T02:22:33.573Z,100701.31
2023-01-22T02:27:37.155Z,100679.31
2023-01-22T02:32:40.495Z,100702.22
2023-01-22T02:37:45.202Z,100713.50
2023-01-22T02:42:48.212Z,100710.22
2023-01-22T02:47:51.673Z,100703.75
2023-01-22T02:52:56.554Z,100706.63
2023-01-22T02:58:00.025Z,100712.28
2023-01-22T03:03:07.973Z,100716.19
2023-01-22T03:08:12.771Z,100723.31
2023-01-22T03:13:33.747Z,100719.66
2023-01-22T03:18:54.547Z,100707.88
2023-01-22T03:23:59.366Z,100724.97
2023-01-22T03:29:02.676Z,100727.88
2023-01-22T03:34:06.114Z,100708.91
2023-01-22T03:39:10.949Z,100719.38
2023-01-22T03:44:14.475Z,100733.94
2023-01-22T03:49:18.345Z,100735.44
2023-01-22T03:54:23.115Z,100733.63
2023-01-22T03:59:26.128Z,100744.41
2023-01-22T04:04:29.520Z,100746.84
2023-01-22T04:09:34.221Z,100742.94
2023-01-22T04:14:37.375Z,100750.75
2023-01-22T04:19:40.665Z,100743.94
2023-01-22T04:24:45.522Z,100751.19
2023-01-22T04:29:48.961Z,100757.31
2023-01-22T04:34:52.281Z,100755.41
2023-01-22T04:39:57.017Z,100761.56
2023-01-22T04:45:00.070Z,100761.56
2023-01-22T04:50:03.492Z,100758.53
2023-01-22T04:55:09.997Z,100769.19
2023-01-22T05:00:14.764Z,100768.31
2023-01-22T05:05:18.503Z,100782.09
2023-01-22T05:10:23.678Z,100772.66
2023-01-22T05:15:27.084Z,100777.78
2023-01-22T05:20:30.470Z,100780.59
2023-01-22T05:25:35.159Z,100784.31
2023-01-22T05:30:38.338Z,100786.84
2023-01-22T05:35:41.681Z,100791.97
2023-01-22T05:40:47.582Z,100792.44
2023-01-22T05:45:51.091Z,100811.38
2023-01-22T05:50:54.596Z,100823.38
2023-01-22T05:56:03.091Z,100828.06
2023-01-22T06:01:07.152Z,100836.28
2023-01-22T06:06:13.572Z,100835.50
2023-01-22T06:11:19.028Z,100834.94
2023-01-22T06:16:22.555Z,100840.94
2023-01-22T06:21:25.888Z,100852.78
2023-01-22T06:26:30.713Z,100866.53
2023-01-22T06:31:34.578Z,100875.06
2023-01-22T06:36:38.094Z,100880.06
2023-01-22T06:41:42.922Z,100878.28
2023-01-22T06:46:46.188Z,100894.78
2023-01-22T06:51:49.641Z,100891.56
2023-01-22T06:56:54.332Z,100906.09
2023-01-22T07:01:57.729Z,100909.50
2023-01-22T07:07:01.056Z,100920.41
2023-01-22T07:12:05.935Z,100911.28
2023-01-22T07:17:09.057Z,100918.59
2023-01-22T07:22:13.929Z,100927.13
2023-01-22T07:27:18.712Z,100933.34
2023-01-22T07:32:21.866Z,100944.19
2023-01-22T07:37:25.316Z,100945.97
2023-01-22T07:42:30.162Z,100956.19
2023-01-22T07:47:33.339Z,100969.91
2023-01-22T07:52:36.766Z,100968.91
2023-01-22T07:57:41.492Z,100965.88
2023-01-22T08:02:44.936Z,100984.13
2023-01-22T08:07:48.400Z,100982.16
2023-01-22T08:12:53.147Z,100986.94
2023-01-22T08:17:56.601Z,101002.28
2023-01-22T08:23:00.591Z,100996.72
2023-01-22T08:28:06.769Z,100995.00
2023-01-22T08:33:10.963Z,101009.84
2023-01-22T08:38:14.446Z,101020.56
2023-01-22T08:43:19.465Z,101013.72
2023-01-22T08:53:43.693Z,101021.44
2023-01-22T08:58:51.389Z,101025.50
2023-01-22T09:03:55.241Z,101038.44
2023-01-22T09:08:59.581Z,101042.84
2023-01-22T09:14:04.524Z,101030.41
2023-01-22T09:19:07.787Z,101046.31
2023-01-22T09:24:11.450Z,101051.81
2023-01-22T09:29:16.301Z,101049.56
2023-01-22T09:34:19.313Z,101057.34
2023-01-22T09:39:22.885Z,101065.47
2023-01-22T09:44:35.607Z,101066.06
2023-01-22T09:49:47.793Z,101065.19
2023-01-22T09:54:51.122Z,101071.28
2023-01-22T09:59:58.417Z,101072.88
2023-01-22T10:05:05.463Z,101067.56
2023-01-22T10:10:22.909Z,101062.56
2023-01-22T10:15:27.833Z,101060.66
2023-01-22T10:20:31.163Z,101061.19
2023-01-22T10:25:35.322Z,101064.59
2023-01-22T10:30:48.077Z,101072.59
2023-01-22T10:35:53.600Z,101056.84
2023-01-22T10:40:59.901Z,101068.31
2023-01-22T10:46:08.200Z,101069.50
2023-01-22T10:51:16.789Z,101067.72
2023-01-22T10:56:29.946Z,101069.81
2023-01-22T11:01:38.090Z,101067.72
2023-01-22T11:06:45.767Z,101078.03
2023-01-22T11:11:56.403Z,101072.69
2023-01-22T11:17:07.500Z,101067.75
2023-01-22T11:22:23.356Z,101066.91
2023-01-22T11:27:52.975Z,101068.56
2023-01-22T11:33:07.691Z,101076.09
2023-01-22T11:38:19.072Z,101073.16
2023-01-22T11:43:32.614Z,101064.50
2023-01-22T11:48:54.122Z,101067.03
2023-01-22T11:54:08.016Z,101076.16
2023-01-22T11:59:15.978Z,101083.06
2023-01-22T12:04:53.791Z,101088.78
2023-01-22T12:10:15.007Z,101099.31
2023-01-22T12:15:34.821Z,101099.91
2023-01-22T12:20:58.759Z,101094.00
2023-01-22T12:26:05.705Z,101105.84
2023-01-22T12:31:15.599Z,101096.00
2023-01-22T12:36:24.232Z,101093.88
2023-01-22T12:41:47.535Z,101094.69
2023-01-22T12:47:01.240Z,101094.41
2023-01-22T12:52:06.299Z,101100.22
2023-01-22T12:57:24.327Z,101097.59
2023-01-22T13:02:39.325Z,101097.97
2023-01-22T13:07:43.919Z,101103.94
2023-01-22T13:12:49.746Z,101106.63
2023-01-22T13:18:06.668Z,101106.81
2023-01-22T13:23:15.379Z,101113.72
2023-01-22T13:28:19.351Z,101116.84
2023-01-22T13:33:23.432Z,101123.31
2023-01-22T13:38:30.001Z,101121.44
2023-01-22T13:43:36.347Z,101132.22
2023-01-22T13:48:39.796Z,101139.97
2023-01-22T13:53:50.521Z,101134.50
2023-01-22T13:59:07.190Z,101142.53
2023-01-22T14:04:27.711Z,101140.81
2023-01-22T14:09:34.039Z,101146.97
2023-01-22T14:14:41.408Z,101144.03
2023-01-22T14:19:44.899Z,101137.19
2023-01-22T14:24:52.636Z,101144.63
2023-01-22T14:29:56.699Z,101143.84
2023-01-22T14:35:01.833Z,101146.63
2023-01-22T14:40:08.704Z,101153.16
2023-01-22T14:45:14.263Z,101154.44
2023-01-22T14:50:19.639Z,101165.59
2023-01-22T14:55:24.900Z,101173.56
2023-01-22T15:00:29.882Z,101174.44
2023-01-22T15:05:35.587Z,101171.94
2023-01-22T15:10:40.785Z,101179.97
2023-01-22T15:15:43.966Z,101166.53
2023-01-22T15:20:47.371Z,101164.22
2023-01-22T15:26:00.042Z,101166.31
2023-01-22T15:31:08.083Z,101166.47
2023-01-22T15:36:11.542Z,101164.88
2023-01-22T15:41:23.764Z,101164.31
2023-01-22T15:46:29.151Z,101166.31
2023-01-22T15:51:32.842Z,101172.97
2023-01-22T15:56:39.471Z,101168.22
2023-01-22T16:01:43.186Z,101165.66
2023-01-22T16:06:46.823Z,101171.94
2023-01-22T16:11:52.679Z,101178.44
2023-01-22T16:16:56.689Z,101186.28
2023-01-22T16:22:00.339Z,101187.19
2023-01-22T16:27:05.239Z,101200.22
2023-01-22T16:32:08.361Z,101195.25
2023-01-22T16:37:11.635Z,101201.78
2023-01-22T16:42:16.455Z,101197.34
2023-01-22T16:47:20.479Z,101207.53
2023-01-22T16:52:23.799Z,101189.31
2023-01-22T16:57:28.574Z,101209.28
2023-01-22T17:02:31.797Z,101205.38
2023-01-22T17:07:35.113Z,101207.16
2023-01-22T17:12:39.847Z,101212.97
2023-01-22T17:17:43.159Z,101223.28
2023-01-22T17:22:46.554Z,101220.00
2023-01-22T17:27:51.438Z,101224.31
2023-01-22T17:32:54.582Z,101214.59
2023-01-22T17:37:57.993Z,101220.38
2023-01-22T17:43:03.108Z,101222.66
2023-01-22T17:48:07.011Z,101226.41
2023-01-22T17:53:10.822Z,101224.31
2023-01-22T17:58:15.679Z,101231.28
2023-01-22T18:03:18.859Z,101229.63
2023-01-22T18:08:22.140Z,101220.88
2023-01-22T18:13:27.730Z,101233.63
2023-01-22T18:18:31.058Z,101215.38
2023-01-22T18:23:34.554Z,101228.41
2023-01-22T18:28:39.686Z,101220.06
2023-01-22T18:33:45.144Z,101236.91
2023-01-22T18:38:48.988Z,101234.13
2023-01-22T18:43:56.390Z,101238.34
2023-01-22T18:49:02.177Z,101239.56
2023-01-22T18:54:06.921Z,101259.59
2023-01-22T18:59:13.328Z,101262.38
2023-01-22T19:04:20.496Z,101265.53
2023-01-22T19:09:27.159Z,101273.41
2023-01-22T19:14:31.879Z,101270.59
2023-01-22T19:19:35.177Z,101275.13
2023-01-22T19:24:38.624Z,101283.34
2023-01-22T19:29:43.525Z,101283.13
2023-01-22T19:34:46.663Z,101294.25
2023-01-22T19:39:50.146Z,101299.16
2023-01-22T19:44:55.037Z,101300.69
2023-01-22T19:49:59.773Z,101293.47
2023-01-22T19:55:03.184Z,101293.81
2023-01-22T20:00:12.970Z,101293.09
2023-01-22T20:05:18.026Z,101296.75
2023-01-22T20:10:23.398Z,101300.13
2023-01-22T20:15:28.485Z,101287.91
2023-01-22T20:20:35.178Z,101289.28
2023-01-22T20:25:39.819Z,101286.88
2023-01-22T20:30:45.553Z,101295.53
2023-01-22T20:35:48.940Z,101298.16
2023-01-22T20:40:52.499Z,101295.34
2023-01-22T20:46:03.207Z,101297.41
2023-01-22T20:51:15.184Z,101312.13
2023-01-22T20:56:22.751Z,101308.72
2023-01-22T21:01:28.372Z,101319.00
2023-01-22T21:06:34.039Z,101315.88
2023-01-22T21:11:40.524Z,101315.66
2023-01-22T21:16:45.916Z,101303.22
2023-01-22T21:21:49.489Z,101324.69
2023-01-22T21:26:52.889Z,101310.47
2023-01-22T21:32:00.830Z,101320.78
2023-01-22T21:37:04.297Z,101312.91
2023-01-22T21:42:26.666Z,101328.22
2023-01-22T21:47:31.762Z,101336.03
2023-01-22T21:52:35.373Z,101336.59
2023-01-22T21:57:39.284Z,101342.63
2023-01-22T22:02:44.120Z,101338.81
2023-01-22T22:07:47.567Z,101341.06
2023-01-22T22:12:54.023Z,101345.38
2023-01-22T22:17:59.475Z,101346.91
2023-01-22T22:23:02.801Z,101344.56
2023-01-22T22:28:06.365Z,101345.69
2023-01-22T22:33:11.095Z,101349.91
2023-01-22T22:38:14.429Z,101346.91
2023-01-22T22:43:17.872Z,101345.50
2023-01-22T22:48:23.012Z,101353.59
2023-01-22T22:53:26.806Z,101344.81
2023-01-22T22:58:30.140Z,101343.06
2023-01-22T23:03:38.736Z,101348.94
2023-01-22T23:08:43.779Z,101346.06
2023-01-22T23:13:49.628Z,101347.84
2023-01-22T23:18:54.497Z,101354.03
2023-01-22T23:23:57.646Z,101354.47
2023-01-22T23:29:03.442Z,101335.19
2023-01-22T23:34:10.126Z,101353.16
2023-01-22T23:39:15.040Z,101353.38
2023-01-22T23:44:18.482Z,101358.38
2023-01-22T23:49:23.314Z,101354.59
2023-01-22T23:54:26.417Z,101355.59
2023-01-22T23:59:29.862Z,101351.91
